createdAt,value
2018-12-27T10:14:51.009Z,6.43
2018-12-27T10:19:53.189Z,7.12
2018-12-27T10:24:55.225Z,6.92
2018-12-27T10:29:57.361Z,7.27
2018-12-27T10:34:59.343Z,7.43
2018-12-27T10:40:01.371Z,7.20
2018-12-27T10:45:03.991Z,6.67
2018-12-27T10:50:07.191Z,7.17
2018-12-27T10:55:09.211Z,6.57
2018-12-27T11:00:11.499Z,6.72
2018-12-27T11:05:13.524Z,7.11
2018-12-27T11:10:15.496Z,7.41
2018-12-27T11:15:17.437Z,7.28
2018-12-27T11:20:19.334Z,7.27
2018-12-27T11:25:21.266Z,7.29
2018-12-27T11:30:23.199Z,7.08
2018-12-27T11:35:25.106Z,8.25
2018-12-27T11:40:27.084Z,8.42
2018-12-27T11:45:29.028Z,7.97
2018-12-27T11:50:31.642Z,7.90
2018-12-27T11:55:33.550Z,8.20
2018-12-27T12:00:35.510Z,7.51
2018-12-27T12:05:37.428Z,7.63
2018-12-27T12:10:39.486Z,8.07
2018-12-27T12:15:41.580Z,8.56
2018-12-27T12:20:43.533Z,8.08
2018-12-27T12:25:45.492Z,7.90
2018-12-27T12:30:47.521Z,7.70
2018-12-27T12:35:49.531Z,7.91
2018-12-27T12:40:51.472Z,8.35
2018-12-27T12:45:53.406Z,8.09
2018-12-27T12:50:55.703Z,8.01
2018-12-27T12:55:57.621Z,7.38
2018-12-27T13:00:59.886Z,7.57
2018-12-27T13:06:01.896Z,7.59
2018-12-27T13:11:03.860Z,7.50
2018-12-27T13:16:05.791Z,7.54
2018-12-27T13:21:09.271Z,7.45
2018-12-27T13:26:11.316Z,7.54
2018-12-27T13:31:13.259Z,7.71
2018-12-27T13:36:15.298Z,7.23
2018-12-27T13:41:17.200Z,7.24
2018-12-27T13:46:19.169Z,7.20
2018-12-27T13:51:21.510Z,6.93
2018-12-27T13:56:23.489Z,6.75
2018-12-27T14:01:25.550Z,6.68
2018-12-27T14:06:32.704Z,6.64
2018-12-27T14:11:31.609Z,6.45
2018-12-27T14:16:33.569Z,6.33
2018-12-27T14:21:35.526Z,6.43
2018-12-27T14:26:37.459Z,6.29
2018-12-27T14:31:39.518Z,6.08
2018-12-27T14:36:41.486Z,6.07
2018-12-27T14:41:43.449Z,5.92
2018-12-27T14:46:45.512Z,5.66
2018-12-27T14:51:47.539Z,5.79
2018-12-27T14:56:49.580Z,5.71
2018-12-27T15:01:51.664Z,5.64
2018-12-27T15:06:53.609Z,5.76
2018-12-27T15:11:55.522Z,5.78
2018-12-27T15:16:57.513Z,5.75
2018-12-27T15:21:59.466Z,5.81
2018-12-27T15:27:01.418Z,5.77
2018-12-27T15:32:03.464Z,5.72
2018-12-27T15:37:05.405Z,5.68
2018-12-27T15:42:07.359Z,5.63
2018-12-27T15:47:09.318Z,5.65
2018-12-27T15:52:11.349Z,5.69
2018-12-27T15:57:13.711Z,5.69
2018-12-27T16:02:15.669Z,5.63
2018-12-27T16:07:17.594Z,5.57
2018-12-27T16:12:19.676Z,5.52
2018-12-27T16:17:22.283Z,5.54
2018-12-27T16:22:24.254Z,5.42
2018-12-27T16:27:26.215Z,5.28
2018-12-27T16:32:28.153Z,5.20
2018-12-27T16:37:30.190Z,5.16
2018-12-27T16:42:32.262Z,5.09
2018-12-27T16:47:34.172Z,5.05
2018-12-27T16:52:36.074Z,5.13
2018-12-27T16:57:38.282Z,5.09
2018-12-27T17:02:40.603Z,5.15
2018-12-27T17:07:42.742Z,5.06
2018-12-27T17:12:45.243Z,5.07
2018-12-27T17:17:47.555Z,5.09
2018-12-27T17:22:49.609Z,4.94
2018-12-27T17:27:51.804Z,4.93
2018-12-27T17:32:54.880Z,4.87
2018-12-27T17:37:56.785Z,4.99
2018-12-27T17:42:59.230Z,4.93
2018-12-27T17:48:01.151Z,4.81
2018-12-27T17:53:03.115Z,4.66
2018-12-27T17:58:05.148Z,4.42
2018-12-27T18:03:07.050Z,4.32
2018-12-27T18:08:09.008Z,4.32
2018-12-27T18:13:11.159Z,4.54
2018-12-27T18:18:13.132Z,4.76
2018-12-27T18:23:15.184Z,4.71
2018-12-27T18:28:17.162Z,4.79
2018-12-27T18:33:19.059Z,4.84
2018-12-27T18:38:21.129Z,4.71
2018-12-27T18:43:23.048Z,4.69
2018-12-27T18:48:24.970Z,4.81
2018-12-27T18:53:27.454Z,4.74
2018-12-27T18:58:29.399Z,4.72
2018-12-27T19:03:31.368Z,4.72
2018-12-27T19:08:33.330Z,4.67
2018-12-27T19:13:35.257Z,4.60
2018-12-27T19:18:43.539Z,4.57
2018-12-27T19:23:45.632Z,4.42
2018-12-27T19:28:47.668Z,4.15
2018-12-27T19:33:49.616Z,4.10
2018-12-27T19:38:51.527Z,4.06
2018-12-27T19:43:53.471Z,4.05
2018-12-27T19:48:55.464Z,4.04
2018-12-27T19:53:57.495Z,3.95
2018-12-27T19:58:59.462Z,3.95
2018-12-27T20:04:01.476Z,3.91
2018-12-27T20:09:05.748Z,4.03
2018-12-27T20:14:07.734Z,4.22
2018-12-27T20:19:11.086Z,4.25
2018-12-27T20:24:14.040Z,4.29
2018-12-27T20:29:17.585Z,4.21
2018-12-27T20:34:19.539Z,4.15
2018-12-27T20:39:21.452Z,4.04
2018-12-27T20:44:23.386Z,3.89
2018-12-27T20:49:25.954Z,3.71
2018-12-27T20:54:28.589Z,3.56
2018-12-27T20:59:31.485Z,3.53
2018-12-27T21:04:34.350Z,3.52
2018-12-27T21:09:36.730Z,3.49
2018-12-27T21:14:39.139Z,3.48
2018-12-27T21:19:43.950Z,3.47
2018-12-27T21:24:45.894Z,3.43
2018-12-27T21:29:47.793Z,3.45
2018-12-27T21:34:50.310Z,3.35
2018-12-27T21:39:52.608Z,3.32
2018-12-27T21:44:55.173Z,3.36
2018-12-27T21:49:57.097Z,3.36
2018-12-27T21:54:59.212Z,3.35
2018-12-27T22:00:08.958Z,3.40
2018-12-27T22:05:14.997Z,3.38
2018-12-27T22:10:30.266Z,3.40
2018-12-27T22:15:49.682Z,3.42
2018-12-27T22:21:09.986Z,3.45
2018-12-27T22:26:42.219Z,3.52
2018-12-27T22:31:50.940Z,3.58
2018-12-27T22:36:54.224Z,3.54
2018-12-27T22:41:57.154Z,3.48
2018-12-27T22:46:59.504Z,3.13
2018-12-27T22:52:01.816Z,3.13
2018-12-27T22:57:03.723Z,2.85
2018-12-27T23:02:10.654Z,2.62
2018-12-27T23:07:13.554Z,2.62
2018-12-27T23:12:15.468Z,2.71
2018-12-27T23:17:18.689Z,2.56
2018-12-27T23:22:21.221Z,2.56
2018-12-27T23:27:24.406Z,2.55
2018-12-27T23:32:27.438Z,2.56
2018-12-27T23:37:29.362Z,2.67
2018-12-27T23:42:31.455Z,2.82
2018-12-27T23:47:34.722Z,3.01
2018-12-27T23:52:36.659Z,3.12
2018-12-27T23:57:38.851Z,3.26
